Time;durP1;ratioP1;P1;durP2;ratioP2;P2;SDS_P1;SDS_P2;PMS_P1;PMS_P2;Temp;Humidity;BMP_temperature;BMP_pressure;BME280_temperature;BME280_humidity;BME280_pressure;Samples;Min_cycle;Max_cycle;Signal;HPM_P1;HPM_P2
2022/10/15 00:03:52;;;;;;;15.73;12.55;;;16.50;79.90;;;;;;10785181;33;20028;-76
2022/10/15 00:09:54;;;;;;;21.80;16.12;;;16.50;79.80;;;;;;10788951;33;20024;-76
2022/10/15 00:15:56;;;;;;;25.55;16.50;;;16.50;79.80;;;;;;10775872;33;20021;-77
2022/10/15 00:21:58;;;;;;;26.85;16.10;;;16.40;79.90;;;;;;10805805;27;20426;-77
2022/10/15 00:28:00;;;;;;;21.58;17.00;;;16.50;80.10;;;;;;10808042;33;20336;-77
2022/10/15 00:34:02;;;;;;;20.40;17.55;;;16.50;80.30;;;;;;10811903;33;20059;-77
2022/10/15 00:40:24;;;;;;;19.45;15.30;;;16.50;80.40;;;;;;10821593;32;20062;-77
2022/10/15 00:46:39;;;;;;;20.15;14.50;;;16.40;80.50;;;;;;10824809;33;20301;-76
2022/10/15 00:53:04;;;;;;;18.12;12.63;;;16.40;80.40;;;;;;10811677;33;20047;-76
2022/10/15 00:59:08;;;;;;;22.67;17.90;;;16.30;80.40;;;;;;10824566;33;20032;-76
2022/10/15 01:05:12;;;;;;;20.75;16.37;;;16.30;80.50;;;;;;10811341;33;20101;-77
2022/10/15 01:11:14;;;;;;;17.17;15.20;;;16.30;80.40;;;;;;10811075;33;20032;-77
2022/10/15 01:17:19;;;;;;;21.65;14.77;;;16.20;80.50;;;;;;10823970;33;20344;-76
2022/10/15 01:23:58;;;;;;;18.58;14.27;;;16.30;80.40;;;;;;10824204;32;20383;-77
2022/10/15 01:30:15;;;;;;;24.40;16.93;;;16.30;80.30;;;;;;10824041;33;20020;-76
2022/10/15 01:36:28;;;;;;;18.98;14.73;;;16.30;80.30;;;;;;10810625;33;20020;-76
2022/10/15 01:42:38;;;;;;;20.77;13.98;;;16.20;80.20;;;;;;10823663;33;20024;-77
2022/10/15 01:48:41;;;;;;;19.27;13.82;;;16.10;80.40;;;;;;10823396;32;20031;-77
2022/10/15 01:54:46;;;;;;;20.05;15.38;;;16.00;80.40;;;;;;10829759;33;20055;-76
2022/10/15 02:00:58;;;;;;;11.88;9.20;;;16.00;80.40;;;;;;10813584;33;20328;-76
2022/10/15 02:07:03;;;;;;;18.42;12.18;;;16.00;80.40;;;;;;10829492;33;20056;-76
2022/10/15 02:13:18;;;;;;;21.98;19.05;;;16.00;80.60;;;;;;10829157;33;20015;-77
2022/10/15 02:19:29;;;;;;;20.42;15.73;;;16.00;80.60;;;;;;10828923;33;20047;-76
2022/10/15 02:25:39;;;;;;;19.70;15.50;;;16.00;80.50;;;;;;10824605;33;20388;-77
2022/10/15 02:31:45;;;;;;;18.98;12.95;;;16.00;80.70;;;;;;10828674;33;20058;-76
2022/10/15 02:37:50;;;;;;;14.48;11.02;;;16.00;80.50;;;;;;10828582;33;20042;-77
2022/10/15 02:43:53;;;;;;;18.75;12.63;;;16.00;80.60;;;;;;10828392;33;20028;-77
2022/10/15 02:49:55;;;;;;;17.12;12.95;;;16.00;80.90;;;;;;10827185;33;20028;-77
2022/10/15 02:55:58;;;;;;;17.62;10.65;;;16.00;80.80;;;;;;10826707;33;20423;-77
2022/10/15 03:02:00;;;;;;;18.20;13.82;;;16.00;80.80;;;;;;10827075;32;20019;-77
2022/10/15 03:08:03;;;;;;;12.90;11.15;;;16.00;80.80;;;;;;10827650;33;20023;-77
2022/10/15 03:14:05;;;;;;;15.15;9.60;;;16.00;80.80;;;;;;10827456;33;20372;-77
2022/10/15 03:20:08;;;;;;;14.65;9.95;;;15.90;80.80;;;;;;10827193;32;20104;-77
2022/10/15 03:26:11;;;;;;;17.40;11.23;;;16.00;80.80;;;;;;10827162;33;20078;-77
2022/10/15 03:32:13;;;;;;;19.02;13.68;;;16.00;80.90;;;;;;10811034;33;20036;-77
2022/10/15 03:38:15;;;;;;;13.93;10.93;;;16.00;81.00;;;;;;10822677;33;20032;-77
2022/10/15 03:44:18;;;;;;;16.98;11.95;;;16.10;81.10;;;;;;10824325;33;20024;-77
2022/10/15 03:50:21;;;;;;;13.52;9.23;;;16.00;81.00;;;;;;10826237;33;20074;-77
2022/10/15 03:56:23;;;;;;;17.48;10.68;;;16.00;81.00;;;;;;10826086;33;20027;-77
2022/10/15 04:02:26;;;;;;;22.60;11.52;;;15.90;81.10;;;;;;10821923;33;20020;-77
2022/10/15 04:08:28;;;;;;;16.58;11.60;;;16.00;81.10;;;;;;10826018;33;20497;-77
2022/10/15 04:14:31;;;;;;;14.43;10.07;;;16.00;81.20;;;;;;10812570;32;20059;-77
2022/10/15 04:20:33;;;;;;;16.73;13.25;;;15.90;81.10;;;;;;10823464;32;20032;-77
2022/10/15 04:26:53;;;;;;;12.07;7.90;;;15.90;81.00;;;;;;10821352;33;20309;-77
2022/10/15 04:32:55;;;;;;;15.32;10.35;;;15.80;81.10;;;;;;10825094;33;20027;-77
2022/10/15 04:38:58;;;;;;;13.98;9.48;;;15.80;81.50;;;;;;10822747;33;20042;-77
2022/10/15 04:45:00;;;;;;;12.70;8.27;;;15.80;81.50;;;;;;10824865;33;20020;-77
2022/10/15 04:51:12;;;;;;;15.43;10.68;;;15.80;81.60;;;;;;10824788;33;20028;-77
2022/10/15 04:57:15;;;;;;;12.77;8.70;;;15.90;81.40;;;;;;10824796;33;20038;-77
2022/10/15 05:03:17;;;;;;;21.77;10.32;;;15.80;81.50;;;;;;10824466;33;20384;-77
2022/10/15 05:09:20;;;;;;;14.95;8.52;;;15.80;81.50;;;;;;10824293;33;20024;-77
2022/10/15 05:15:25;;;;;;;15.65;11.90;;;15.80;81.60;;;;;;10824028;33;20024;-77
2022/10/15 05:21:27;;;;;;;22.08;11.68;;;15.80;81.50;;;;;;10824013;33;20322;-77
2022/10/15 05:27:30;;;;;;;14.05;9.63;;;15.80;81.50;;;;;;10828259;32;20046;-76
2022/10/15 05:33:41;;;;;;;11.07;6.68;;;15.70;81.40;;;;;;10830337;33;20032;-77
2022/10/15 05:39:43;;;;;;;17.42;10.88;;;15.70;81.50;;;;;;10830095;33;20396;-77
2022/10/15 05:45:46;;;;;;;14.50;9.98;;;15.80;81.60;;;;;;10816731;33;20023;-77
2022/10/15 05:51:48;;;;;;;15.88;10.65;;;15.80;81.80;;;;;;10829531;33;20069;-77
2022/10/15 05:57:51;;;;;;;13.82;9.00;;;15.80;81.80;;;;;;10832523;32;20164;-77
2022/10/15 06:03:53;;;;;;;15.93;10.35;;;15.90;81.80;;;;;;10825409;33;20268;-77
2022/10/15 06:09:55;;;;;;;18.75;12.63;;;15.90;81.80;;;;;;10829010;33;20377;-77
2022/10/15 06:15:58;;;;;;;13.00;10.10;;;15.90;81.90;;;;;;10829109;33;20316;-78
2022/10/15 06:22:00;;;;;;;12.82;7.87;;;15.90;81.80;;;;;;10815905;32;20338;-77
2022/10/15 06:28:05;;;;;;;15.95;10.98;;;15.80;81.80;;;;;;10828632;33;20020;-78
2022/10/15 06:34:14;;;;;;;13.10;8.63;;;15.70;81.90;;;;;;10799901;33;20032;-78
2022/10/15 06:40:16;;;;;;;11.60;9.07;;;15.70;81.90;;;;;;10790548;33;20054;-78
2022/10/15 06:46:18;;;;;;;11.07;8.38;;;15.80;81.70;;;;;;10791425;33;20105;-77
2022/10/15 06:52:20;;;;;;;12.10;8.23;;;15.90;81.50;;;;;;10791108;33;20384;-77
2022/10/15 06:58:23;;;;;;;13.23;8.55;;;16.00;81.30;;;;;;10791164;33;20047;-77
2022/10/15 07:04:25;;;;;;;12.75;7.37;;;16.20;81.20;;;;;;10790811;33;20015;-77
2022/10/15 07:10:27;;;;;;;14.10;7.90;;;16.30;81.10;;;;;;10790557;33;20055;-77
2022/10/15 07:16:29;;;;;;;17.25;9.20;;;16.40;80.80;;;;;;10790583;33;20020;-77
2022/10/15 07:22:31;;;;;;;18.98;10.93;;;16.40;80.80;;;;;;10790059;33;20076;-73
2022/10/15 07:28:33;;;;;;;9.50;6.72;;;16.50;80.70;;;;;;10786135;33;20043;-72
2022/10/15 07:34:35;;;;;;;11.63;6.55;;;16.50;80.60;;;;;;10776949;33;20047;-72
2022/10/15 07:40:37;;;;;;;13.50;9.50;;;16.60;80.50;;;;;;10789935;33;20025;-72
2022/10/15 07:46:39;;;;;;;11.98;9.25;;;16.70;80.50;;;;;;10788991;33;20360;-71
2022/10/15 07:52:42;;;;;;;17.08;10.45;;;16.80;80.30;;;;;;10776499;33;20458;-72
2022/10/15 07:58:50;;;;;;;14.77;10.18;;;16.80;80.20;;;;;;10776462;33;20043;-72
2022/10/15 08:04:52;;;;;;;21.83;14.87;;;16.90;80.00;;;;;;10772040;32;20065;-71
2022/10/15 08:10:54;;;;;;;17.10;11.27;;;17.00;79.80;;;;;;10784646;33;20020;-72
2022/10/15 08:16:56;;;;;;;16.17;11.05;;;17.10;80.30;;;;;;10788945;33;20048;-72
2022/10/15 08:22:58;;;;;;;29.63;19.58;;;17.30;80.30;;;;;;10789907;27;726352;-72
2022/10/15 08:29:01;;;;;;;22.95;17.92;;;17.40;80.00;;;;;;10825410;33;20027;-72
2022/10/15 08:35:03;;;;;;;19.30;16.33;;;17.50;79.60;;;;;;10825329;33;20466;-72
2022/10/15 08:41:51;;;;;;;23.77;19.00;;;17.50;79.20;;;;;;10822063;33;20020;-72
2022/10/15 08:48:10;;;;;;;27.83;18.87;;;17.70;78.70;;;;;;10824863;32;20040;-72
2022/10/15 08:54:16;;;;;;;29.23;20.48;;;17.80;78.40;;;;;;10826226;32;20064;-76
2022/10/15 09:00:43;;;;;;;27.85;22.33;;;18.00;78.00;;;;;;10813182;32;20377;-77
2022/10/15 09:06:47;;;;;;;25.80;22.10;;;18.10;77.70;;;;;;10825414;32;20446;-77
2022/10/15 09:13:24;;;;;;;23.38;20.17;;;18.20;77.40;;;;;;10825583;32;20062;-76
2022/10/15 09:19:28;;;;;;;26.83;21.33;;;18.30;77.00;;;;;;10701575;32;20025;-74
2022/10/15 09:26:22;;;;;;;28.73;22.37;;;18.40;76.70;;;;;;10626771;33;20056;-77
2022/10/15 09:32:44;;;;;;;19.92;16.23;;;18.40;76.60;;;;;;10647083;33;20064;-76
2022/10/15 09:39:07;;;;;;;26.67;22.65;;;18.50;76.50;;;;;;10602557;33;20316;-76
2022/10/15 09:45:13;;;;;;;26.98;19.08;;;18.60;76.20;;;;;;10602801;33;20407;-76
2022/10/15 09:51:37;;;;;;;24.45;19.75;;;18.60;76.30;;;;;;10595883;33;20029;-76
2022/10/15 09:57:39;;;;;;;26.92;22.45;;;18.70;75.70;;;;;;10745102;33;20024;-75
2022/10/15 10:03:41;;;;;;;30.20;23.87;;;18.80;75.40;;;;;;10745983;33;20381;-76
2022/10/15 10:09:54;;;;;;;29.95;26.23;;;19.00;75.00;;;;;;10818156;32;20056;-77
2022/10/15 10:16:05;;;;;;;31.12;25.90;;;19.10;74.60;;;;;;10830451;33;20426;-77
2022/10/15 10:22:14;;;;;;;33.05;24.52;;;19.20;74.00;;;;;;10831055;33;20388;-78
2022/10/15 10:28:24;;;;;;;27.47;20.80;;;19.30;74.00;;;;;;10875526;32;20032;-74
2022/10/15 10:34:30;;;;;;;23.90;19.90;;;19.50;73.60;;;;;;10879802;32;20298;-74
2022/10/15 10:40:34;;;;;;;33.38;27.62;;;19.60;73.30;;;;;;10828440;33;20383;-74
2022/10/15 10:46:40;;;;;;;31.42;24.52;;;19.70;72.50;;;;;;10877766;32;20028;-76
2022/10/15 10:52:43;;;;;;;27.27;23.00;;;19.90;72.30;;;;;;10824599;33;20067;-76
2022/10/15 10:58:57;;;;;;;29.42;24.08;;;20.20;71.90;;;;;;10827814;33;20062;-78
2022/10/15 11:04:59;;;;;;;31.85;24.55;;;20.40;71.40;;;;;;10827780;33;20020;-76
2022/10/15 11:11:30;;;;;;;33.85;23.75;;;20.70;70.80;;;;;;10827546;33;20327;-75
2022/10/15 11:17:51;;;;;;;33.53;24.35;;;20.90;70.20;;;;;;10642849;33;20442;-75
2022/10/15 11:23:59;;;;;;;39.85;32.03;;;21.10;70.10;;;;;;10641227;33;20038;-76
2022/10/15 11:30:35;;;;;;;31.10;24.27;;;21.30;69.80;;;;;;10641338;33;20374;-70
2022/10/15 11:37:13;;;;;;;39.00;28.45;;;21.30;69.20;;;;;;10641378;33;20065;-71
2022/10/15 11:43:47;;;;;;;27.95;21.30;;;21.10;68.70;;;;;;10641143;33;20025;-72
2022/10/15 11:50:04;;;;;;;30.80;25.67;;;20.90;69.00;;;;;;10735634;32;20039;-72
2022/10/15 11:56:14;;;;;;;34.47;27.58;;;20.90;68.80;;;;;;10892677;32;20023;-72
2022/10/15 12:02:27;;;;;;;33.20;25.45;;;20.80;68.70;;;;;;10864509;32;20066;-71
2022/10/15 12:08:34;;;;;;;34.55;27.70;;;20.80;69.10;;;;;;10864193;32;20035;-71
2022/10/15 12:15:20;;;;;;;29.25;23.98;;;21.00;69.00;;;;;;10860847;32;20043;-77
2022/10/15 12:21:39;;;;;;;42.47;26.92;;;21.10;69.20;;;;;;10859974;32;20043;-78
2022/10/15 12:27:59;;;;;;;35.08;24.50;;;21.20;68.80;;;;;;10792650;32;20318;-77
2022/10/15 12:34:02;;;;;;;30.83;23.73;;;21.30;68.50;;;;;;10788529;33;20028;-75
2022/10/15 12:40:27;;;;;;;26.05;20.50;;;21.20;68.40;;;;;;10788425;33;20024;-75
2022/10/15 12:46:37;;;;;;;34.70;26.80;;;21.20;68.40;;;;;;10783975;33;20059;-76
2022/10/15 12:53:02;;;;;;;26.08;20.10;;;21.20;68.20;;;;;;10787721;33;20039;-77
2022/10/15 12:59:29;;;;;;;40.40;34.47;;;21.20;68.10;;;;;;10816458;33;20481;-76
2022/10/15 13:05:35;;;;;;;35.10;23.30;;;21.20;67.90;;;;;;10812054;33;20459;-75
2022/10/15 13:11:51;;;;;;;34.75;23.55;;;21.30;68.10;;;;;;10824978;33;20051;-75
2022/10/15 13:18:03;;;;;;;40.88;29.63;;;21.30;68.10;;;;;;10825115;33;20094;-74
2022/10/15 13:24:10;;;;;;;32.95;22.08;;;21.40;68.00;;;;;;10823796;32;20024;-74
2022/10/15 13:30:14;;;;;;;32.60;22.80;;;21.40;67.70;;;;;;10819897;33;20324;-74
2022/10/15 13:36:31;;;;;;;35.00;25.12;;;21.40;67.30;;;;;;10823399;32;20348;-75
2022/10/15 13:42:33;;;;;;;31.20;22.05;;;21.40;67.50;;;;;;10822711;33;20067;-76
2022/10/15 13:48:42;;;;;;;27.25;21.10;;;21.30;67.90;;;;;;10827803;32;20046;-77
2022/10/15 13:54:45;;;;;;;28.77;22.25;;;21.30;68.10;;;;;;10824489;33;20032;-77
2022/10/15 14:00:56;;;;;;;29.80;23.02;;;21.30;68.20;;;;;;10829331;33;20055;-77
2022/10/15 14:07:23;;;;;;;29.17;19.92;;;21.20;68.40;;;;;;10825418;32;20055;-77
2022/10/15 14:13:26;;;;;;;27.67;21.33;;;21.30;68.20;;;;;;10829187;33;20027;-77
2022/10/15 14:19:31;;;;;;;28.92;21.90;;;21.30;68.20;;;;;;10828463;33;20310;-77
2022/10/15 14:25:33;;;;;;;30.70;23.20;;;21.30;68.20;;;;;;10815676;33;20321;-77
2022/10/15 14:31:35;;;;;;;33.50;24.12;;;21.20;68.40;;;;;;10811505;32;20035;-72
2022/10/15 14:37:41;;;;;;;28.52;22.60;;;21.20;68.70;;;;;;10823696;33;20019;-72
2022/10/15 14:43:43;;;;;;;27.00;21.90;;;21.20;68.70;;;;;;10824149;33;20071;-71
2022/10/15 14:49:46;;;;;;;30.92;22.17;;;21.20;68.80;;;;;;10828224;33;20032;-71
2022/10/15 14:55:52;;;;;;;31.17;22.40;;;21.20;68.90;;;;;;10827961;32;20028;-71
2022/10/15 15:01:59;;;;;;;26.23;20.17;;;21.10;69.10;;;;;;10827282;33;20046;-77
2022/10/15 15:08:01;;;;;;;37.22;31.23;;;21.00;69.20;;;;;;10825568;33;20028;-77
2022/10/15 15:14:16;;;;;;;42.60;32.53;;;21.00;69.20;;;;;;10814478;32;20066;-71
2022/10/15 15:20:19;;;;;;;34.90;26.37;;;20.90;69.30;;;;;;10811868;32;20028;-71
2022/10/15 15:26:22;;;;;;;31.10;26.10;;;20.90;69.30;;;;;;10823069;33;20340;-72
2022/10/15 15:32:24;;;;;;;48.50;33.83;;;20.80;69.50;;;;;;10822851;33;20054;-72
2022/10/15 15:38:30;;;;;;;33.42;28.90;;;20.80;69.60;;;;;;10826940;33;20058;-72
2022/10/15 15:44:32;;;;;;;35.78;25.88;;;20.70;69.80;;;;;;10823374;33;20050;-71
2022/10/15 15:50:43;;;;;;;34.53;28.92;;;20.60;69.90;;;;;;10826528;33;20023;-71
2022/10/15 15:56:45;;;;;;;34.78;23.83;;;20.60;70.10;;;;;;10813129;33;20024;-71
2022/10/15 16:02:47;;;;;;;33.80;26.27;;;20.40;70.40;;;;;;10826226;33;20028;-71
2022/10/15 16:08:52;;;;;;;35.75;24.73;;;20.30;70.50;;;;;;10812720;32;20027;-71
2022/10/15 16:14:54;;;;;;;34.65;23.33;;;20.30;70.70;;;;;;10812527;33;20051;-71
2022/10/15 16:20:56;;;;;;;33.28;25.77;;;20.20;70.90;;;;;;10828379;27;20347;-72
2022/10/15 16:27:12;;;;;;;26.45;20.73;;;20.10;71.00;;;;;;10808277;33;20024;-71
2022/10/15 16:33:15;;;;;;;32.47;23.77;;;20.00;71.20;;;;;;10825112;33;20051;-71
2022/10/15 16:39:19;;;;;;;30.05;21.05;;;19.90;71.40;;;;;;10804294;32;20058;-73
2022/10/15 16:45:21;;;;;;;35.40;25.00;;;19.80;71.50;;;;;;10775208;33;20029;-72
2022/10/15 16:51:24;;;;;;;28.95;20.92;;;19.80;71.70;;;;;;10787955;33;20067;-72
2022/10/15 16:57:26;;;;;;;25.95;22.05;;;19.80;72.00;;;;;;10783969;33;20080;-77
2022/10/15 17:03:29;;;;;;;35.63;26.27;;;19.70;72.20;;;;;;10785643;33;20032;-77
2022/10/15 17:09:31;;;;;;;36.45;26.65;;;19.60;72.30;;;;;;10787645;33;20058;-78
2022/10/15 17:15:33;;;;;;;60.05;38.30;;;19.60;72.40;;;;;;10787500;33;20064;-77
2022/10/15 17:21:36;;;;;;;49.88;36.30;;;19.50;72.80;;;;;;10788891;33;20434;-72
2022/10/15 17:27:39;;;;;;;49.67;37.13;;;19.50;73.20;;;;;;10793667;33;20047;-72
2022/10/15 17:33:42;;;;;;;41.13;34.30;;;19.40;73.80;;;;;;10793588;33;20028;-72
2022/10/15 17:39:44;;;;;;;38.10;30.33;;;19.40;74.00;;;;;;10789854;33;20063;-73
2022/10/15 17:46:14;;;;;;;41.17;29.83;;;19.40;73.90;;;;;;10789299;33;20337;-72
2022/10/15 17:52:16;;;;;;;40.40;30.95;;;19.30;74.00;;;;;;10775890;32;20032;-72
2022/10/15 17:58:19;;;;;;;40.53;30.58;;;19.30;74.10;;;;;;10792946;33;20054;-72
2022/10/15 18:04:21;;;;;;;34.50;26.00;;;19.30;74.10;;;;;;10791370;33;20024;-77
2022/10/15 18:10:25;;;;;;;30.88;24.05;;;19.30;74.20;;;;;;10779025;33;20174;-77
2022/10/15 18:16:27;;;;;;;34.47;25.12;;;19.20;74.40;;;;;;10792468;33;20184;-77
2022/10/15 18:22:32;;;;;;;30.27;25.23;;;19.20;74.40;;;;;;10790998;33;20307;-77
2022/10/15 18:28:37;;;;;;;30.67;22.17;;;19.10;74.40;;;;;;10788571;33;20056;-77
2022/10/15 18:34:39;;;;;;;35.92;22.58;;;19.00;74.60;;;;;;10790234;32;20036;-77
2022/10/15 18:40:41;;;;;;;25.12;20.30;;;19.00;74.80;;;;;;10793070;33;20364;-77
2022/10/15 18:46:44;;;;;;;27.90;20.70;;;19.00;74.90;;;;;;10791681;32;20036;-77
2022/10/15 18:52:46;;;;;;;33.13;24.17;;;19.00;75.00;;;;;;10791513;33;20051;-77
2022/10/15 18:58:48;;;;;;;27.45;21.48;;;18.90;75.30;;;;;;10791491;33;20028;-77
2022/10/15 19:04:50;;;;;;;31.48;23.20;;;18.80;75.30;;;;;;10788518;33;20024;-77
2022/10/15 19:10:54;;;;;;;33.22;26.73;;;18.80;75.30;;;;;;10773747;33;20033;-77
2022/10/15 19:17:06;;;;;;;34.35;27.00;;;18.80;75.50;;;;;;10790645;33;20058;-77
2022/10/15 19:23:10;;;;;;;31.92;23.30;;;18.80;75.50;;;;;;10790604;33;20050;-77
2022/10/15 19:29:12;;;;;;;30.08;23.38;;;18.70;75.50;;;;;;10790518;33;20020;-77
2022/10/15 19:35:15;;;;;;;27.60;21.92;;;18.70;75.60;;;;;;10790170;33;20328;-77
2022/10/15 19:41:18;;;;;;;30.27;23.73;;;18.70;75.60;;;;;;10789865;33;20051;-77
2022/10/15 19:47:22;;;;;;;34.08;24.15;;;18.70;75.60;;;;;;10789323;32;20024;-77
2022/10/15 19:53:24;;;;;;;30.60;21.70;;;18.60;75.90;;;;;;10789655;33;20093;-77
2022/10/15 19:59:26;;;;;;;36.83;25.37;;;18.60;75.90;;;;;;10789444;33;20321;-77
2022/10/15 20:05:28;;;;;;;28.62;20.00;;;18.60;76.00;;;;;;10789504;33;20368;-77
2022/10/15 20:11:40;;;;;;;28.95;23.10;;;18.60;76.10;;;;;;10789686;33;20230;-77
2022/10/15 20:17:42;;;;;;;30.17;21.50;;;18.60;76.10;;;;;;10790233;33;20313;-77
2022/10/15 20:23:46;;;;;;;36.88;25.98;;;18.50;76.20;;;;;;10786346;33;20056;-77
2022/10/15 20:29:48;;;;;;;37.00;25.25;;;18.60;76.30;;;;;;10788696;33;20051;-77
2022/10/15 20:35:50;;;;;;;25.80;18.20;;;18.60;76.20;;;;;;10775545;33;20020;-77
2022/10/15 20:41:52;;;;;;;27.17;19.95;;;18.50;76.30;;;;;;10788565;33;20024;-72
2022/10/15 20:47:54;;;;;;;30.95;18.87;;;18.60;76.30;;;;;;10788208;33;20055;-72
2022/10/15 20:53:58;;;;;;;35.25;25.95;;;18.60;76.40;;;;;;10784370;33;20051;-72
2022/10/15 21:00:00;;;;;;;29.80;21.92;;;18.60;76.50;;;;;;10786596;33;20149;-72
2022/10/15 21:06:01;;;;;;;25.42;21.48;;;18.70;76.50;;;;;;10787921;33;20020;-72
2022/10/15 21:12:04;;;;;;;28.80;23.00;;;18.70;76.50;;;;;;10787731;33;20016;-72
2022/10/15 21:18:06;;;;;;;30.40;24.80;;;18.60;76.70;;;;;;10774337;33;20294;-72
2022/10/15 21:24:17;;;;;;;33.70;23.00;;;18.60;76.90;;;;;;10785364;33;20032;-77
2022/10/15 21:30:19;;;;;;;31.73;23.40;;;18.60;77.10;;;;;;10787127;33;20396;-77
2022/10/15 21:36:25;;;;;;;30.52;22.85;;;18.60;77.30;;;;;;10787219;33;20046;-77
2022/10/15 21:42:28;;;;;;;31.37;23.55;;;18.50;77.40;;;;;;10787028;32;20423;-77
2022/10/15 21:48:52;;;;;;;30.23;22.60;;;18.50;77.30;;;;;;10787041;33;20306;-77
2022/10/15 21:54:55;;;;;;;25.90;19.92;;;18.50;77.10;;;;;;10786691;33;20336;-77
2022/10/15 22:01:05;;;;;;;30.60;23.52;;;18.50;77.20;;;;;;10783538;33;20028;-77
2022/10/15 22:07:08;;;;;;;34.53;25.37;;;18.50;77.50;;;;;;10775153;33;20017;-77
2022/10/15 22:13:10;;;;;;;30.02;21.80;;;18.50;77.50;;;;;;10792673;33;20302;-77
2022/10/15 22:19:17;;;;;;;28.30;20.02;;;18.50;77.40;;;;;;10790251;33;20028;-77
2022/10/15 22:25:19;;;;;;;26.15;20.12;;;18.50;77.50;;;;;;10792383;33;20043;-77
2022/10/15 22:31:25;;;;;;;27.27;22.10;;;18.50;77.60;;;;;;10792146;33;20020;-76
2022/10/15 22:37:28;;;;;;;26.23;20.48;;;18.50;77.60;;;;;;10791925;33;20344;-77
2022/10/15 22:43:32;;;;;;;27.10;20.52;;;18.40;77.50;;;;;;10778834;33;20043;-77
2022/10/15 22:49:34;;;;;;;27.27;21.15;;;18.50;77.70;;;;;;10791724;33;20078;-77
2022/10/15 22:55:36;;;;;;;27.08;23.10;;;18.40;77.70;;;;;;10791440;33;20384;-76
2022/10/15 23:01:48;;;;;;;34.92;24.85;;;18.50;77.60;;;;;;10791472;33;20012;-76
2022/10/15 23:07:50;;;;;;;38.08;21.87;;;18.50;77.50;;;;;;10777192;33;20051;-77
2022/10/15 23:14:00;;;;;;;31.15;21.00;;;18.50;77.60;;;;;;10790750;33;20055;-77
2022/10/15 23:20:03;;;;;;;31.37;20.85;;;18.40;77.80;;;;;;10790004;33;20394;-77
2022/10/15 23:26:05;;;;;;;31.12;23.75;;;18.40;77.90;;;;;;10789626;33;20079;-76
2022/10/15 23:32:08;;;;;;;29.45;22.30;;;18.40;77.90;;;;;;10790462;33;20067;-77
2022/10/15 23:38:13;;;;;;;34.08;25.75;;;18.40;77.90;;;;;;10790209;33;20024;-77
2022/10/15 23:44:15;;;;;;;40.80;26.48;;;18.40;78.10;;;;;;10811264;32;20367;-76
2022/10/15 23:50:17;;;;;;;35.22;26.37;;;18.40;78.10;;;;;;10825291;33;20016;-77
2022/10/15 23:56:20;;;;;;;32.13;24.37;;;18.40;77.90;;;;;;10824875;33;20075;-77
